sensor_id;sensor_type;location;lat;lon;timestamp;noise_LAeq;noise_LA_min;noise_LA_max;noise_LA01;noise_LA95
60872;Laerm;46714;50.118;14.462;2022-09-09T00:04:38;64.59;43.39;74.32;;
60872;Laerm;46714;50.118;14.462;2022-09-09T00:07:21;66.66;52.90;75.90;;
60872;Laerm;46714;50.118;14.462;2022-09-09T00:10:18;65.33;49.84;73.45;;
60872;Laerm;46714;50.118;14.462;2022-09-09T00:12:50;64.05;44.90;75.48;;
60872;Laerm;46714;50.118;14.462;2022-09-09T00:15:24;65.10;43.29;76.97;;
60872;Laerm;46714;50.118;14.462;2022-09-09T00:20:49;66.85;54.57;76.53;;
60872;Laerm;46714;50.118;14.462;2022-09-09T00:23:32;66.86;50.34;79.54;;
60872;Laerm;46714;50.118;14.462;2022-09-09T00:26:16;66.06;50.06;78.42;;
60872;Laerm;46714;50.118;14.462;2022-09-09T00:29:10;65.70;47.20;73.62;;
60872;Laerm;46714;50.118;14.462;2022-09-09T00:31:39;68.03;54.55;80.60;;
60872;Laerm;46714;50.118;14.462;2022-09-09T00:34:11;66.08;47.95;78.24;;
60872;Laerm;46714;50.118;14.462;2022-09-09T00:36:39;64.24;48.60;74.08;;
60872;Laerm;46714;50.118;14.462;2022-09-09T00:39:13;66.60;51.28;76.04;;
60872;Laerm;46714;50.118;14.462;2022-09-09T00:44:31;66.82;45.83;76.27;;
60872;Laerm;46714;50.118;14.462;2022-09-09T00:47:02;67.23;48.32;80.21;;
60872;Laerm;46714;50.118;14.462;2022-09-09T00:49:38;64.16;45.75;73.89;;
60872;Laerm;46714;50.118;14.462;2022-09-09T00:55:16;65.12;52.06;73.98;;
60872;Laerm;46714;50.118;14.462;2022-09-09T00:57:44;63.43;40.98;73.39;;
60872;Laerm;46714;50.118;14.462;2022-09-09T01:00:41;66.28;40.98;79.35;;
60872;Laerm;46714;50.118;14.462;2022-09-09T01:06:14;64.39;45.83;76.62;;
60872;Laerm;46714;50.118;14.462;2022-09-09T01:09:30;67.62;57.14;78.48;;
60872;Laerm;46714;50.118;14.462;2022-09-09T01:12:07;65.58;53.32;74.06;;
60872;Laerm;46714;50.118;14.462;2022-09-09T01:17:17;65.68;43.29;82.10;;
60872;Laerm;46714;50.118;14.462;2022-09-09T01:27:47;67.54;47.24;80.29;;
60872;Laerm;46714;50.118;14.462;2022-09-09T01:30:16;66.00;48.52;77.24;;
60872;Laerm;46714;50.118;14.462;2022-09-09T01:32:44;66.26;45.69;74.84;;
60872;Laerm;46714;50.118;14.462;2022-09-09T01:35:31;66.18;53.52;75.68;;
60872;Laerm;46714;50.118;14.462;2022-09-09T01:37:58;62.63;44.73;72.15;;
60872;Laerm;46714;50.118;14.462;2022-09-09T01:40:24;68.65;53.39;77.43;;
60872;Laerm;46714;50.118;14.462;2022-09-09T01:42:51;66.98;45.80;76.04;;
60872;Laerm;46714;50.118;14.462;2022-09-09T01:45:17;65.52;48.87;76.83;;
60872;Laerm;46714;50.118;14.462;2022-09-09T01:47:43;63.73;48.23;73.52;;
60872;Laerm;46714;50.118;14.462;2022-09-09T01:50:12;65.44;55.13;74.21;;
60872;Laerm;46714;50.118;14.462;2022-09-09T01:53:01;64.83;45.11;75.40;;
60872;Laerm;46714;50.118;14.462;2022-09-09T01:55:37;65.86;45.17;74.18;;
60872;Laerm;46714;50.118;14.462;2022-09-09T02:01:02;66.94;50.91;75.42;;
60872;Laerm;46714;50.118;14.462;2022-09-09T02:03:32;66.39;47.77;76.49;;
60872;Laerm;46714;50.118;14.462;2022-09-09T02:06:05;63.91;44.07;72.08;;
60872;Laerm;46714;50.118;14.462;2022-09-09T02:08:46;67.30;52.26;77.45;;
60872;Laerm;46714;50.118;14.462;2022-09-09T02:11:16;65.62;53.58;76.84;;
60872;Laerm;46714;50.118;14.462;2022-09-09T02:13:48;68.74;51.22;79.45;;
60872;Laerm;46714;50.118;14.462;2022-09-09T02:16:28;66.15;47.16;76.45;;
60872;Laerm;46714;50.118;14.462;2022-09-09T02:19:11;68.67;53.71;84.29;;
60872;Laerm;46714;50.118;14.462;2022-09-09T02:21:41;67.04;50.44;77.63;;
60872;Laerm;46714;50.118;14.462;2022-09-09T02:24:08;62.94;49.33;74.37;;
60872;Laerm;46714;50.118;14.462;2022-09-09T02:26:38;63.87;50.68;72.85;;
60872;Laerm;46714;50.118;14.462;2022-09-09T02:29:08;66.51;50.82;79.69;;
60872;Laerm;46714;50.118;14.462;2022-09-09T02:31:36;67.64;59.22;75.59;;
60872;Laerm;46714;50.118;14.462;2022-09-09T02:34:05;65.63;51.70;75.05;;
60872;Laerm;46714;50.118;14.462;2022-09-09T02:36:35;69.40;54.90;82.81;;
60872;Laerm;46714;50.118;14.462;2022-09-09T02:39:01;67.17;57.33;76.38;;
60872;Laerm;46714;50.118;14.462;2022-09-09T02:41:34;67.54;48.98;76.23;;
60872;Laerm;46714;50.118;14.462;2022-09-09T02:44:00;67.84;48.94;78.70;;
60872;Laerm;46714;50.118;14.462;2022-09-09T02:46:32;68.15;49.40;80.45;;
60872;Laerm;46714;50.118;14.462;2022-09-09T02:49:06;70.49;50.40;85.85;;
60872;Laerm;46714;50.118;14.462;2022-09-09T02:52:01;67.93;54.41;80.67;;
60872;Laerm;46714;50.118;14.462;2022-09-09T02:54:30;69.11;52.47;79.09;;
60872;Laerm;46714;50.118;14.462;2022-09-09T02:57:04;68.90;47.74;83.47;;
60872;Laerm;46714;50.118;14.462;2022-09-09T02:59:31;70.79;58.93;80.80;;
60872;Laerm;46714;50.118;14.462;2022-09-09T03:01:57;68.76;54.80;77.23;;
60872;Laerm;46714;50.118;14.462;2022-09-09T03:04:22;68.60;54.10;78.43;;
60872;Laerm;46714;50.118;14.462;2022-09-09T03:06:49;69.85;56.62;79.96;;
60872;Laerm;46714;50.118;14.462;2022-09-09T03:09:14;70.26;60.02;77.88;;
60872;Laerm;46714;50.118;14.462;2022-09-09T03:11:40;68.95;59.62;77.73;;
60872;Laerm;46714;50.118;14.462;2022-09-09T03:14:05;69.44;56.89;77.13;;
60872;Laerm;46714;50.118;14.462;2022-09-09T03:16:31;70.12;56.82;77.25;;
60872;Laerm;46714;50.118;14.462;2022-09-09T03:18:58;69.89;60.73;76.62;;
60872;Laerm;46714;50.118;14.462;2022-09-09T03:21:23;71.21;60.21;80.11;;
60872;Laerm;46714;50.118;14.462;2022-09-09T03:23:49;69.55;62.52;78.22;;
60872;Laerm;46714;50.118;14.462;2022-09-09T03:26:15;71.10;63.99;79.89;;
60872;Laerm;46714;50.118;14.462;2022-09-09T03:28:41;71.15;61.83;77.61;;
60872;Laerm;46714;50.118;14.462;2022-09-09T03:31:07;70.69;60.56;77.20;;
60872;Laerm;46714;50.118;14.462;2022-09-09T03:33:36;70.79;62.06;76.95;;
60872;Laerm;46714;50.118;14.462;2022-09-09T03:36:02;70.46;59.41;76.53;;
60872;Laerm;46714;50.118;14.462;2022-09-09T03:38:28;72.02;64.43;78.05;;
60872;Laerm;46714;50.118;14.462;2022-09-09T03:40:55;71.32;62.64;77.72;;
60872;Laerm;46714;50.118;14.462;2022-09-09T03:43:22;73.19;66.32;78.78;;
60872;Laerm;46714;50.118;14.462;2022-09-09T03:45:49;72.33;65.55;79.17;;
60872;Laerm;46714;50.118;14.462;2022-09-09T03:48:15;72.14;65.62;83.08;;
60872;Laerm;46714;50.118;14.462;2022-09-09T03:50:49;71.94;65.27;78.20;;
60872;Laerm;46714;50.118;14.462;2022-09-09T03:53:16;72.70;66.03;78.14;;
60872;Laerm;46714;50.118;14.462;2022-09-09T03:55:48;71.88;64.00;76.52;;
60872;Laerm;46714;50.118;14.462;2022-09-09T03:58:14;71.92;66.25;78.10;;
60872;Laerm;46714;50.118;14.462;2022-09-09T04:00:40;72.33;66.82;79.54;;
60872;Laerm;46714;50.118;14.462;2022-09-09T04:03:10;72.87;67.63;79.50;;
60872;Laerm;46714;50.118;14.462;2022-09-09T04:05:35;72.70;67.46;82.67;;
60872;Laerm;46714;50.118;14.462;2022-09-09T04:08:05;73.56;67.79;81.60;;
60872;Laerm;46714;50.118;14.462;2022-09-09T04:10:31;73.31;67.86;79.05;;
60872;Laerm;46714;50.118;14.462;2022-09-09T04:12:56;72.93;65.26;77.42;;
60872;Laerm;46714;50.118;14.462;2022-09-09T04:15:22;73.16;67.57;78.15;;
60872;Laerm;46714;50.118;14.462;2022-09-09T04:17:47;73.39;66.89;80.66;;
60872;Laerm;46714;50.118;14.462;2022-09-09T04:20:12;73.36;65.99;79.79;;
60872;Laerm;46714;50.118;14.462;2022-09-09T04:22:38;73.65;67.84;79.32;;
60872;Laerm;46714;50.118;14.462;2022-09-09T04:25:06;73.57;66.96;90.83;;
60872;Laerm;46714;50.118;14.462;2022-09-09T04:27:31;74.15;68.28;82.00;;
60872;Laerm;46714;50.118;14.462;2022-09-09T04:29:57;73.68;67.05;77.38;;
60872;Laerm;46714;50.118;14.462;2022-09-09T04:32:24;73.24;66.72;76.89;;
60872;Laerm;46714;50.118;14.462;2022-09-09T04:34:52;73.57;65.25;79.21;;
60872;Laerm;46714;50.118;14.462;2022-09-09T04:37:17;72.32;65.23;77.34;;
60872;Laerm;46714;50.118;14.462;2022-09-09T04:39:42;74.37;65.53;82.13;;
60872;Laerm;46714;50.118;14.462;2022-09-09T04:42:08;74.37;65.78;85.43;;
60872;Laerm;46714;50.118;14.462;2022-09-09T04:44:33;73.42;64.49;77.95;;
60872;Laerm;46714;50.118;14.462;2022-09-09T04:46:58;74.12;68.25;78.83;;
60872;Laerm;46714;50.118;14.462;2022-09-09T04:49:24;74.30;68.54;78.89;;
60872;Laerm;46714;50.118;14.462;2022-09-09T04:51:49;75.01;67.91;87.56;;
60872;Laerm;46714;50.118;14.462;2022-09-09T04:54:15;74.75;68.12;80.81;;
60872;Laerm;46714;50.118;14.462;2022-09-09T04:56:41;73.63;67.70;77.59;;
60872;Laerm;46714;50.118;14.462;2022-09-09T04:59:07;73.10;68.33;82.56;;
60872;Laerm;46714;50.118;14.462;2022-09-09T05:01:32;73.07;65.73;78.94;;
60872;Laerm;46714;50.118;14.462;2022-09-09T05:03:59;72.39;64.32;83.42;;
60872;Laerm;46714;50.118;14.462;2022-09-09T05:06:25;74.09;68.50;82.13;;
60872;Laerm;46714;50.118;14.462;2022-09-09T05:08:51;73.68;68.83;77.65;;
60872;Laerm;46714;50.118;14.462;2022-09-09T05:11:18;73.73;67.82;79.58;;
60872;Laerm;46714;50.118;14.462;2022-09-09T05:13:44;73.80;67.66;79.51;;
60872;Laerm;46714;50.118;14.462;2022-09-09T05:16:09;73.23;66.16;79.13;;
60872;Laerm;46714;50.118;14.462;2022-09-09T05:18:39;74.35;68.84;86.95;;
60872;Laerm;46714;50.118;14.462;2022-09-09T05:21:05;73.79;66.96;78.99;;
60872;Laerm;46714;50.118;14.462;2022-09-09T05:23:32;73.27;66.27;82.07;;
60872;Laerm;46714;50.118;14.462;2022-09-09T05:25:59;73.42;67.39;78.82;;
60872;Laerm;46714;50.118;14.462;2022-09-09T05:28:25;76.61;70.01;92.94;;
60872;Laerm;46714;50.118;14.462;2022-09-09T05:30:55;75.67;66.82;90.92;;
60872;Laerm;46714;50.118;14.462;2022-09-09T05:33:21;74.10;66.41;80.33;;
60872;Laerm;46714;50.118;14.462;2022-09-09T05:35:46;74.43;67.25;80.62;;
60872;Laerm;46714;50.118;14.462;2022-09-09T05:38:12;74.06;65.45;82.32;;
60872;Laerm;46714;50.118;14.462;2022-09-09T05:40:37;73.63;67.52;80.97;;
60872;Laerm;46714;50.118;14.462;2022-09-09T05:43:02;77.04;66.05;98.54;;
60872;Laerm;46714;50.118;14.462;2022-09-09T05:45:28;77.97;71.14;97.58;;
60872;Laerm;46714;50.118;14.462;2022-09-09T05:47:53;73.74;67.37;78.61;;
60872;Laerm;46714;50.118;14.462;2022-09-09T05:50:19;74.41;68.71;81.12;;
60872;Laerm;46714;50.118;14.462;2022-09-09T05:52:44;74.65;66.44;82.67;;
60872;Laerm;46714;50.118;14.462;2022-09-09T05:55:09;80.76;69.35;95.80;;
60872;Laerm;46714;50.118;14.462;2022-09-09T05:57:34;74.49;66.80;84.45;;
60872;Laerm;46714;50.118;14.462;2022-09-09T06:00:00;74.22;65.64;81.93;;
60872;Laerm;46714;50.118;14.462;2022-09-09T06:02:25;73.76;67.76;79.80;;
60872;Laerm;46714;50.118;14.462;2022-09-09T06:04:51;73.69;64.94;81.94;;
60872;Laerm;46714;50.118;14.462;2022-09-09T06:07:16;73.47;65.55;77.97;;
60872;Laerm;46714;50.118;14.462;2022-09-09T06:09:42;73.76;69.49;78.31;;
60872;Laerm;46714;50.118;14.462;2022-09-09T06:12:08;73.69;66.64;78.97;;
60872;Laerm;46714;50.118;14.462;2022-09-09T06:14:34;74.02;66.98;81.90;;
60872;Laerm;46714;50.118;14.462;2022-09-09T06:16:59;74.51;68.33;81.92;;
60872;Laerm;46714;50.118;14.462;2022-09-09T06:19:24;72.92;63.87;79.93;;
60872;Laerm;46714;50.118;14.462;2022-09-09T06:21:52;73.49;66.64;79.27;;
60872;Laerm;46714;50.118;14.462;2022-09-09T06:24:17;74.48;65.95;82.75;;
60872;Laerm;46714;50.118;14.462;2022-09-09T06:26:44;73.33;64.60;80.44;;
60872;Laerm;46714;50.118;14.462;2022-09-09T06:29:10;74.43;68.05;82.50;;
60872;Laerm;46714;50.118;14.462;2022-09-09T06:31:37;74.36;68.28;82.43;;
60872;Laerm;46714;50.118;14.462;2022-09-09T06:34:05;73.83;68.98;80.70;;
60872;Laerm;46714;50.118;14.462;2022-09-09T06:36:33;73.30;62.98;79.14;;
60872;Laerm;46714;50.118;14.462;2022-09-09T06:38:59;73.25;62.45;80.11;;
60872;Laerm;46714;50.118;14.462;2022-09-09T06:41:29;74.32;66.24;84.90;;
60872;Laerm;46714;50.118;14.462;2022-09-09T06:43:56;76.35;68.07;94.37;;
60872;Laerm;46714;50.118;14.462;2022-09-09T06:46:23;73.56;67.14;81.38;;
60872;Laerm;46714;50.118;14.462;2022-09-09T06:48:53;73.10;65.16;78.72;;
60872;Laerm;46714;50.118;14.462;2022-09-09T06:51:21;72.98;64.45;80.33;;
60872;Laerm;46714;50.118;14.462;2022-09-09T06:53:50;72.81;63.25;81.75;;
60872;Laerm;46714;50.118;14.462;2022-09-09T06:58:44;73.40;68.34;78.10;;
60872;Laerm;46714;50.118;14.462;2022-09-09T07:01:12;72.84;68.67;77.13;;
60872;Laerm;46714;50.118;14.462;2022-09-09T07:03:39;73.61;66.37;83.44;;
60872;Laerm;46714;50.118;14.462;2022-09-09T07:06:05;73.18;65.85;81.28;;
60872;Laerm;46714;50.118;14.462;2022-09-09T07:08:31;73.25;67.56;78.97;;
60872;Laerm;46714;50.118;14.462;2022-09-09T07:11:02;76.21;65.82;95.87;;
60872;Laerm;46714;50.118;14.462;2022-09-09T07:13:30;72.64;63.91;82.90;;
60872;Laerm;46714;50.118;14.462;2022-09-09T07:16:13;73.11;66.00;76.87;;
60872;Laerm;46714;50.118;14.462;2022-09-09T07:18:40;75.19;66.04;92.81;;
60872;Laerm;46714;50.118;14.462;2022-09-09T07:21:07;73.68;64.70;78.98;;
60872;Laerm;46714;50.118;14.462;2022-09-09T07:23:33;74.28;66.45;84.08;;
60872;Laerm;46714;50.118;14.462;2022-09-09T07:26:01;73.69;67.51;78.44;;
60872;Laerm;46714;50.118;14.462;2022-09-09T07:28:27;74.32;69.13;80.90;;
60872;Laerm;46714;50.118;14.462;2022-09-09T07:30:59;74.31;67.78;81.71;;
60872;Laerm;46714;50.118;14.462;2022-09-09T07:33:28;74.49;69.60;80.54;;
60872;Laerm;46714;50.118;14.462;2022-09-09T07:36:08;73.76;68.05;78.98;;
60872;Laerm;46714;50.118;14.462;2022-09-09T07:38:38;76.34;66.77;87.85;;
60872;Laerm;46714;50.118;14.462;2022-09-09T07:41:09;73.22;67.64;79.26;;
60872;Laerm;46714;50.118;14.462;2022-09-09T07:43:38;73.68;67.40;79.28;;
60872;Laerm;46714;50.118;14.462;2022-09-09T07:46:05;77.78;67.78;96.12;;
60872;Laerm;46714;50.118;14.462;2022-09-09T07:48:31;73.75;67.70;79.68;;
60872;Laerm;46714;50.118;14.462;2022-09-09T07:51:12;73.64;66.14;81.32;;
60872;Laerm;46714;50.118;14.462;2022-09-09T07:53:40;74.81;70.21;78.71;;
60872;Laerm;46714;50.118;14.462;2022-09-09T07:56:08;74.58;69.96;78.62;;
60872;Laerm;46714;50.118;14.462;2022-09-09T07:58:35;73.91;69.01;77.65;;
60872;Laerm;46714;50.118;14.462;2022-09-09T08:01:50;75.16;69.71;91.99;;
60872;Laerm;46714;50.118;14.462;2022-09-09T08:03:59;74.76;66.16;82.08;;
60872;Laerm;46714;50.118;14.462;2022-09-09T08:06:32;75.06;70.31;82.40;;
60872;Laerm;46714;50.118;14.462;2022-09-09T08:08:58;74.66;70.45;80.91;;
60872;Laerm;46714;50.118;14.462;2022-09-09T08:11:26;74.52;69.00;81.23;;
60872;Laerm;46714;50.118;14.462;2022-09-09T08:13:53;73.95;68.79;80.73;;
60872;Laerm;46714;50.118;14.462;2022-09-09T08:16:27;73.87;67.13;78.17;;
60872;Laerm;46714;50.118;14.462;2022-09-09T08:18:53;74.90;69.79;79.93;;
60872;Laerm;46714;50.118;14.462;2022-09-09T08:21:23;74.24;68.36;85.66;;
60872;Laerm;46714;50.118;14.462;2022-09-09T08:23:51;74.70;70.10;82.18;;
60872;Laerm;46714;50.118;14.462;2022-09-09T08:26:19;75.12;70.50;82.85;;
60872;Laerm;46714;50.118;14.462;2022-09-09T08:28:53;74.80;67.56;79.86;;
60872;Laerm;46714;50.118;14.462;2022-09-09T08:31:32;74.69;68.72;84.50;;
60872;Laerm;46714;50.118;14.462;2022-09-09T08:33:59;75.14;69.92;84.72;;
60872;Laerm;46714;50.118;14.462;2022-09-09T08:36:27;74.24;68.60;79.08;;
60872;Laerm;46714;50.118;14.462;2022-09-09T08:38:54;74.53;70.59;79.86;;
60872;Laerm;46714;50.118;14.462;2022-09-09T08:44:00;74.07;69.00;85.40;;
60872;Laerm;46714;50.118;14.462;2022-09-09T08:52:51;74.40;70.63;81.77;;
60872;Laerm;46714;50.118;14.462;2022-09-09T08:57:54;75.19;68.81;83.36;;
60872;Laerm;46714;50.118;14.462;2022-09-09T09:00:21;74.31;70.72;79.72;;
60872;Laerm;46714;50.118;14.462;2022-09-09T09:06:01;75.18;71.69;82.17;;
60872;Laerm;46714;50.118;14.462;2022-09-09T09:09:08;74.75;67.41;83.45;;
60872;Laerm;46714;50.118;14.462;2022-09-09T09:11:50;75.00;68.77;80.86;;
60872;Laerm;46714;50.118;14.462;2022-09-09T09:14:24;75.02;70.50;81.93;;
60872;Laerm;46714;50.118;14.462;2022-09-09T09:17:12;74.39;68.77;78.99;;
60872;Laerm;46714;50.118;14.462;2022-09-09T09:19:40;74.90;69.37;89.00;;
60872;Laerm;46714;50.118;14.462;2022-09-09T09:24:56;74.56;68.25;79.47;;
60872;Laerm;46714;50.118;14.462;2022-09-09T09:28:09;75.47;68.31;92.51;;
60872;Laerm;46714;50.118;14.462;2022-09-09T09:30:57;74.82;68.37;83.31;;
60872;Laerm;46714;50.118;14.462;2022-09-09T09:34:07;74.60;68.05;91.99;;
60872;Laerm;46714;50.118;14.462;2022-09-09T09:36:13;77.24;70.45;98.91;;
60872;Laerm;46714;50.118;14.462;2022-09-09T09:41:48;74.56;69.38;79.98;;
60872;Laerm;46714;50.118;14.462;2022-09-09T09:44:25;74.86;71.18;80.57;;
60872;Laerm;46714;50.118;14.462;2022-09-09T09:46:51;74.68;68.58;80.14;;
60872;Laerm;46714;50.118;14.462;2022-09-09T09:49:16;75.14;69.16;82.31;;
60872;Laerm;46714;50.118;14.462;2022-09-09T09:51:42;74.15;69.57;79.23;;
60872;Laerm;46714;50.118;14.462;2022-09-09T09:56:40;78.98;66.10;101.07;;
60872;Laerm;46714;50.118;14.462;2022-09-09T09:59:23;76.55;67.99;94.94;;
60872;Laerm;46714;50.118;14.462;2022-09-09T10:01:48;74.33;69.07;78.74;;
60872;Laerm;46714;50.118;14.462;2022-09-09T10:04:16;74.85;67.18;84.15;;
60872;Laerm;46714;50.118;14.462;2022-09-09T10:06:44;74.36;69.97;78.26;;
60872;Laerm;46714;50.118;14.462;2022-09-09T10:09:27;74.31;67.25;78.65;;
60872;Laerm;46714;50.118;14.462;2022-09-09T10:23:54;74.45;70.20;82.50;;
60872;Laerm;46714;50.118;14.462;2022-09-09T10:29:26;74.63;70.74;80.31;;
60872;Laerm;46714;50.118;14.462;2022-09-09T10:37:07;77.62;70.10;97.13;;
60872;Laerm;46714;50.118;14.462;2022-09-09T10:39:40;75.01;69.26;83.85;;
60872;Laerm;46714;50.118;14.462;2022-09-09T10:42:09;74.59;71.36;83.14;;
60872;Laerm;46714;50.118;14.462;2022-09-09T10:45:13;75.00;70.52;88.64;;
60872;Laerm;46714;50.118;14.462;2022-09-09T10:56:02;74.00;69.82;78.75;;
60872;Laerm;46714;50.118;14.462;2022-09-09T11:01:13;76.60;69.75;94.39;;
60872;Laerm;46714;50.118;14.462;2022-09-09T11:03:42;74.13;69.44;77.87;;
60872;Laerm;46714;50.118;14.462;2022-09-09T11:06:17;73.81;70.04;77.79;;
60872;Laerm;46714;50.118;14.462;2022-09-09T11:08:44;74.08;70.79;77.42;;
60872;Laerm;46714;50.118;14.462;2022-09-09T11:11:14;73.63;68.24;78.61;;
60872;Laerm;46714;50.118;14.462;2022-09-09T11:16:22;74.63;70.26;82.59;;
60872;Laerm;46714;50.118;14.462;2022-09-09T11:18:57;73.53;69.97;79.76;;
60872;Laerm;46714;50.118;14.462;2022-09-09T11:21:29;74.16;69.25;82.09;;
60872;Laerm;46714;50.118;14.462;2022-09-09T11:24:01;74.63;70.35;86.73;;
60872;Laerm;46714;50.118;14.462;2022-09-09T11:26:47;82.08;70.50;103.81;;
60872;Laerm;46714;50.118;14.462;2022-09-09T11:32:25;73.77;70.40;80.00;;
60872;Laerm;46714;50.118;14.462;2022-09-09T11:40:24;78.66;76.30;80.96;;
60872;Laerm;46714;50.118;14.462;2022-09-09T11:43:05;78.85;75.45;83.32;;
60872;Laerm;46714;50.118;14.462;2022-09-09T11:45:35;78.00;75.23;81.26;;
60872;Laerm;46714;50.118;14.462;2022-09-09T11:48:03;76.99;73.79;83.57;;
60872;Laerm;46714;50.118;14.462;2022-09-09T11:50:36;78.80;75.52;82.97;;
60872;Laerm;46714;50.118;14.462;2022-09-09T11:53:20;78.80;73.93;84.68;;
60872;Laerm;46714;50.118;14.462;2022-09-09T11:55:59;78.89;76.03;84.66;;
60872;Laerm;46714;50.118;14.462;2022-09-09T11:58:25;78.16;74.72;81.54;;
60872;Laerm;46714;50.118;14.462;2022-09-09T12:00:51;78.52;74.84;82.79;;
60872;Laerm;46714;50.118;14.462;2022-09-09T12:06:28;78.42;75.20;84.04;;
60872;Laerm;46714;50.118;14.462;2022-09-09T12:09:23;79.72;75.71;87.82;;
60872;Laerm;46714;50.118;14.462;2022-09-09T12:11:50;79.25;73.57;84.02;;
60872;Laerm;46714;50.118;14.462;2022-09-09T12:14:34;77.05;69.65;81.07;;
60872;Laerm;46714;50.118;14.462;2022-09-09T12:17:52;76.91;71.41;81.86;;
60872;Laerm;46714;50.118;14.462;2022-09-09T12:23:48;74.74;71.01;77.96;;
60872;Laerm;46714;50.118;14.462;2022-09-09T12:29:08;76.75;72.96;84.18;;
60872;Laerm;46714;50.118;14.462;2022-09-09T12:31:51;76.09;71.82;80.83;;
60872;Laerm;46714;50.118;14.462;2022-09-09T12:34:33;76.13;69.03;80.01;;
60872;Laerm;46714;50.118;14.462;2022-09-09T12:37:35;75.01;71.33;80.29;;
60872;Laerm;46714;50.118;14.462;2022-09-09T12:42:43;75.78;68.34;90.94;;
60872;Laerm;46714;50.118;14.462;2022-09-09T12:50:30;78.63;75.72;87.41;;
60872;Laerm;46714;50.118;14.462;2022-09-09T12:53:05;79.73;75.53;93.55;;
60872;Laerm;46714;50.118;14.462;2022-09-09T12:55:38;78.83;73.44;85.92;;
60872;Laerm;46714;50.118;14.462;2022-09-09T12:58:05;77.65;74.07;86.31;;
60872;Laerm;46714;50.118;14.462;2022-09-09T13:00:33;78.75;75.54;84.34;;
60872;Laerm;46714;50.118;14.462;2022-09-09T13:03:01;77.90;74.06;82.40;;
60872;Laerm;46714;50.118;14.462;2022-09-09T13:05:33;77.86;73.67;90.47;;
60872;Laerm;46714;50.118;14.462;2022-09-09T13:08:10;77.55;71.85;88.34;;
60872;Laerm;46714;50.118;14.462;2022-09-09T13:10:43;78.45;72.60;82.79;;
60872;Laerm;46714;50.118;14.462;2022-09-09T13:13:15;76.21;71.09;82.72;;
60872;Laerm;46714;50.118;14.462;2022-09-09T13:15:52;78.90;75.10;93.55;;
60872;Laerm;46714;50.118;14.462;2022-09-09T13:18:22;79.26;73.97;92.99;;
60872;Laerm;46714;50.118;14.462;2022-09-09T13:20:49;79.71;74.93;82.87;;
60872;Laerm;46714;50.118;14.462;2022-09-09T13:23:17;77.85;72.02;83.53;;
60872;Laerm;46714;50.118;14.462;2022-09-09T13:25:53;77.32;73.01;83.22;;
60872;Laerm;46714;50.118;14.462;2022-09-09T13:28:24;79.16;74.93;85.97;;
60872;Laerm;46714;50.118;14.462;2022-09-09T13:31:01;77.82;72.11;83.93;;
60872;Laerm;46714;50.118;14.462;2022-09-09T13:33:37;78.34;74.44;81.40;;
60872;Laerm;46714;50.118;14.462;2022-09-09T13:36:06;77.21;73.34;80.63;;
60872;Laerm;46714;50.118;14.462;2022-09-09T13:38:40;77.97;71.96;81.49;;
60872;Laerm;46714;50.118;14.462;2022-09-09T13:41:10;77.19;73.34;81.17;;
60872;Laerm;46714;50.118;14.462;2022-09-09T13:43:53;76.83;72.40;80.97;;
60872;Laerm;46714;50.118;14.462;2022-09-09T13:46:40;76.16;71.69;80.94;;
60872;Laerm;46714;50.118;14.462;2022-09-09T13:51:37;74.88;70.07;80.47;;
60872;Laerm;46714;50.118;14.462;2022-09-09T13:54:08;75.94;70.82;82.53;;
60872;Laerm;46714;50.118;14.462;2022-09-09T13:56:34;74.81;70.45;79.74;;
60872;Laerm;46714;50.118;14.462;2022-09-09T13:59:01;73.98;70.55;84.60;;
60872;Laerm;46714;50.118;14.462;2022-09-09T14:01:27;74.06;69.85;80.02;;
60872;Laerm;46714;50.118;14.462;2022-09-09T14:03:53;74.80;68.45;94.44;;
60872;Laerm;46714;50.118;14.462;2022-09-09T14:06:18;72.79;68.97;76.72;;
60872;Laerm;46714;50.118;14.462;2022-09-09T14:08:44;73.34;67.29;78.93;;
60872;Laerm;46714;50.118;14.462;2022-09-09T14:11:12;79.85;69.65;98.75;;
60872;Laerm;46714;50.118;14.462;2022-09-09T14:13:38;74.28;70.20;79.86;;
60872;Laerm;46714;50.118;14.462;2022-09-09T14:16:03;74.57;69.58;79.42;;
60872;Laerm;46714;50.118;14.462;2022-09-09T14:18:29;75.05;70.43;80.79;;
60872;Laerm;46714;50.118;14.462;2022-09-09T14:20:54;75.58;71.76;79.08;;
60872;Laerm;46714;50.118;14.462;2022-09-09T14:23:20;73.24;68.34;80.79;;
60872;Laerm;46714;50.118;14.462;2022-09-09T14:25:47;78.53;67.37;97.51;;
60872;Laerm;46714;50.118;14.462;2022-09-09T14:28:14;73.80;69.17;82.59;;
60872;Laerm;46714;50.118;14.462;2022-09-09T14:30:41;72.87;67.90;78.65;;
60872;Laerm;46714;50.118;14.462;2022-09-09T14:33:09;74.26;68.55;79.07;;
60872;Laerm;46714;50.118;14.462;2022-09-09T14:35:36;74.78;70.79;81.87;;
60872;Laerm;46714;50.118;14.462;2022-09-09T14:38:02;75.00;71.57;81.45;;
60872;Laerm;46714;50.118;14.462;2022-09-09T14:40:28;74.32;71.06;77.87;;
60872;Laerm;46714;50.118;14.462;2022-09-09T14:42:53;71.69;67.15;76.99;;
60872;Laerm;46714;50.118;14.462;2022-09-09T14:45:19;73.88;68.34;81.27;;
60872;Laerm;46714;50.118;14.462;2022-09-09T14:47:46;72.32;67.19;81.33;;
60872;Laerm;46714;50.118;14.462;2022-09-09T14:50:11;76.61;71.22;96.45;;
60872;Laerm;46714;50.118;14.462;2022-09-09T14:52:37;72.72;66.28;93.23;;
60872;Laerm;46714;50.118;14.462;2022-09-09T14:55:03;74.69;70.87;79.33;;
60872;Laerm;46714;50.118;14.462;2022-09-09T14:57:28;75.10;70.52;82.33;;
60872;Laerm;46714;50.118;14.462;2022-09-09T14:59:54;74.85;69.50;78.65;;
60872;Laerm;46714;50.118;14.462;2022-09-09T15:02:19;74.72;70.89;80.32;;
60872;Laerm;46714;50.118;14.462;2022-09-09T15:04:44;74.65;69.32;83.86;;
60872;Laerm;46714;50.118;14.462;2022-09-09T15:07:11;80.10;70.56;100.42;;
60872;Laerm;46714;50.118;14.462;2022-09-09T15:09:36;73.74;69.24;80.29;;
60872;Laerm;46714;50.118;14.462;2022-09-09T15:12:02;72.43;65.97;80.83;;
60872;Laerm;46714;50.118;14.462;2022-09-09T15:14:29;73.95;69.81;77.34;;
60872;Laerm;46714;50.118;14.462;2022-09-09T15:16:55;73.59;68.61;78.77;;
60872;Laerm;46714;50.118;14.462;2022-09-09T15:19:21;71.02;63.71;82.08;;
60872;Laerm;46714;50.118;14.462;2022-09-09T15:21:46;72.79;66.53;77.42;;
60872;Laerm;46714;50.118;14.462;2022-09-09T15:24:13;74.95;70.21;81.49;;
60872;Laerm;46714;50.118;14.462;2022-09-09T15:26:38;73.73;69.58;78.73;;
60872;Laerm;46714;50.118;14.462;2022-09-09T15:29:05;78.99;67.88;101.10;;
60872;Laerm;46714;50.118;14.462;2022-09-09T15:31:32;73.62;70.45;77.97;;
60872;Laerm;46714;50.118;14.462;2022-09-09T15:34:00;73.80;69.64;79.41;;
60872;Laerm;46714;50.118;14.462;2022-09-09T15:38:54;73.90;68.62;78.19;;
60872;Laerm;46714;50.118;14.462;2022-09-09T15:41:21;73.97;69.91;79.95;;
60872;Laerm;46714;50.118;14.462;2022-09-09T15:43:48;73.97;70.09;81.20;;
60872;Laerm;46714;50.118;14.462;2022-09-09T15:46:22;74.56;69.12;87.48;;
60872;Laerm;46714;50.118;14.462;2022-09-09T15:49:08;73.95;69.35;80.32;;